Time;durP1;ratioP1;P1;durP2;ratioP2;P2;SDS_P1;SDS_P2;PMS_P1;PMS_P2;Temp;Humidity;BMP_temperature;BMP_pressure;BME280_temperature;BME280_humidity;BME280_pressure;Samples;Min_cycle;Max_cycle;Signal;HPM_P1;HPM_P2
2022/08/10 00:01:16;;;;;;;6.77;5.20;;;;;;;;;;5038218;28;20199;-71
2022/08/10 00:03:45;;;;;;;8.50;5.17;;;;;;;;;;5039627;28;20209;-71
2022/08/10 00:06:12;;;;;;;6.80;5.20;;;;;;;;;;5041974;28;20576;-71
2022/08/10 00:08:39;;;;;;;8.93;4.77;;;;;;;;;;5038881;28;20211;-71
2022/08/10 00:11:07;;;;;;;9.50;5.60;;;;;;;;;;5040679;28;20311;-71
2022/08/10 00:13:34;;;;;;;7.47;5.13;;;;;;;;;;5041625;28;20282;-71
2022/08/10 00:16:01;;;;;;;8.27;5.30;;;;;;;;;;5040235;28;20645;-71
2022/08/10 00:18:28;;;;;;;12.37;5.03;;;;;;;;;;5041900;28;20566;-71
2022/08/10 00:20:57;;;;;;;7.80;5.20;;;;;;;;;;5041577;28;20677;-71
2022/08/10 00:23:24;;;;;;;8.60;5.50;;;;;;;;;;5044560;28;20221;-71
2022/08/10 00:25:51;;;;;;;8.57;5.20;;;;;;;;;;5043429;28;20238;-71
2022/08/10 00:28:18;;;;;;;8.10;5.13;;;;;;;;;;5045828;28;20595;-72
2022/08/10 00:30:45;;;;;;;7.87;5.67;;;;;;;;;;5046290;28;20290;-71
2022/08/10 00:33:13;;;;;;;11.20;5.73;;;;;;;;;;5046385;28;20203;-71
2022/08/10 00:35:40;;;;;;;8.43;5.60;;;;;;;;;;5043771;28;20203;-71
2022/08/10 00:38:08;;;;;;;9.30;5.57;;;;;;;;;;5044912;28;20222;-70
2022/08/10 00:40:35;;;;;;;8.10;5.87;;;;;;;;;;5039550;28;20199;-71
2022/08/10 00:43:02;;;;;;;9.70;5.53;;;;;;;;;;5044506;28;20203;-71
2022/08/10 00:45:29;;;;;;;9.33;5.70;;;;;;;;;;5042776;28;20202;-71
2022/08/10 00:47:57;;;;;;;9.13;5.53;;;;;;;;;;5042503;28;20231;-71
2022/08/10 00:50:24;;;;;;;7.87;5.30;;;;;;;;;;5043599;28;20212;-71
2022/08/10 00:52:51;;;;;;;6.97;5.27;;;;;;;;;;5045853;28;20670;-71
2022/08/10 00:55:20;;;;;;;9.37;5.60;;;;;;;;;;5040539;28;20204;-71
2022/08/10 00:57:47;;;;;;;8.30;5.53;;;;;;;;;;5044103;28;20222;-71
2022/08/10 01:00:14;;;;;;;8.07;5.77;;;;;;;;;;5040973;28;20704;-71
2022/08/10 01:02:42;;;;;;;7.37;5.73;;;;;;;;;;5042469;28;20199;-71
2022/08/10 01:05:10;;;;;;;9.43;5.53;;;;;;;;;;5042027;28;20294;-72
2022/08/10 01:07:48;;;;;;;9.80;5.97;;;;;;;;;;5040988;28;20229;-71
2022/08/10 01:10:19;;;;;;;11.13;5.80;;;;;;;;;;5039688;28;20285;-71
2022/08/10 01:12:51;;;;;;;11.53;5.37;;;;;;;;;;5044132;28;20206;-71
2022/08/10 01:15:22;;;;;;;13.33;5.57;;;;;;;;;;5042722;28;20206;-71
2022/08/10 01:17:53;;;;;;;8.93;5.83;;;;;;;;;;5043534;28;20211;-71
2022/08/10 01:20:34;;;;;;;8.33;5.60;;;;;;;;;;5040471;28;20210;-71
2022/08/10 01:23:25;;;;;;;8.80;5.50;;;;;;;;;;5040349;28;20218;-71
2022/08/10 01:26:05;;;;;;;8.60;5.67;;;;;;;;;;5041476;28;20314;-71
2022/08/10 01:28:38;;;;;;;7.73;5.33;;;;;;;;;;5042558;28;20783;-71
2022/08/10 01:31:09;;;;;;;14.10;5.43;;;;;;;;;;5039914;28;20257;-71
2022/08/10 01:33:37;;;;;;;8.03;5.77;;;;;;;;;;5042123;28;20598;-71
2022/08/10 01:36:08;;;;;;;8.47;5.37;;;;;;;;;;5040131;28;20202;-71
2022/08/10 01:38:37;;;;;;;10.23;5.70;;;;;;;;;;5039765;28;20294;-71
2022/08/10 01:41:07;;;;;;;8.53;5.47;;;;;;;;;;5044251;28;20423;-71
2022/08/10 01:43:35;;;;;;;8.87;5.53;;;;;;;;;;5040528;28;20710;-71
2022/08/10 01:46:03;;;;;;;9.17;5.50;;;;;;;;;;5043105;28;20226;-71
2022/08/10 01:48:33;;;;;;;7.93;5.00;;;;;;;;;;5045597;28;20339;-71
2022/08/10 01:51:08;;;;;;;9.03;5.37;;;;;;;;;;5042585;28;20279;-70
2022/08/10 01:53:37;;;;;;;8.93;5.70;;;;;;;;;;5041403;28;20797;-71
2022/08/10 01:56:05;;;;;;;11.17;5.70;;;;;;;;;;5042779;28;20195;-71
2022/08/10 01:58:33;;;;;;;8.37;5.63;;;;;;;;;;5039355;28;20203;-71
2022/08/10 02:01:01;;;;;;;8.67;5.43;;;;;;;;;;5041231;28;20852;-71
2022/08/10 02:03:28;;;;;;;16.53;5.63;;;;;;;;;;5043965;28;20303;-71
2022/08/10 02:05:58;;;;;;;10.13;5.33;;;;;;;;;;5044006;28;20206;-71
2022/08/10 02:08:26;;;;;;;14.00;6.37;;;;;;;;;;5039039;28;20195;-71
2022/08/10 02:10:54;;;;;;;10.70;6.03;;;;;;;;;;5039609;28;20306;-71
2022/08/10 02:13:22;;;;;;;12.40;5.53;;;;;;;;;;5041623;28;20207;-71
2022/08/10 02:15:50;;;;;;;9.73;5.70;;;;;;;;;;5042342;28;20199;-71
2022/08/10 02:18:18;;;;;;;8.83;5.60;;;;;;;;;;5041269;28;20219;-71
2022/08/10 02:20:47;;;;;;;10.00;5.97;;;;;;;;;;5042149;28;20212;-71
2022/08/10 02:23:17;;;;;;;7.87;5.60;;;;;;;;;;5039499;28;20215;-71
2022/08/10 02:25:45;;;;;;;10.20;5.77;;;;;;;;;;5040341;28;20218;-71
2022/08/10 02:28:14;;;;;;;8.47;5.80;;;;;;;;;;5044109;28;20313;-71
2022/08/10 02:30:42;;;;;;;6.80;5.17;;;;;;;;;;5039619;28;20195;-71
2022/08/10 02:33:09;;;;;;;11.00;6.00;;;;;;;;;;5044224;28;20203;-71
2022/08/10 02:35:37;;;;;;;8.80;6.33;;;;;;;;;;5040543;28;20209;-71
2022/08/10 02:38:06;;;;;;;10.67;5.70;;;;;;;;;;5043628;28;20603;-71
2022/08/10 02:40:46;;;;;;;13.77;5.93;;;;;;;;;;5041273;28;20199;-71
2022/08/10 02:43:21;;;;;;;13.50;5.73;;;;;;;;;;5044580;28;20218;-71
2022/08/10 02:45:50;;;;;;;9.93;5.93;;;;;;;;;;5040764;28;20576;-71
2022/08/10 02:48:19;;;;;;;13.83;5.90;;;;;;;;;;5041092;28;20223;-71
2022/08/10 02:50:49;;;;;;;10.23;6.00;;;;;;;;;;5040522;28;20551;-71
2022/08/10 02:53:19;;;;;;;8.30;5.60;;;;;;;;;;5042144;28;20685;-71
2022/08/10 02:55:50;;;;;;;9.70;6.07;;;;;;;;;;5040670;28;20309;-71
2022/08/10 02:58:21;;;;;;;8.03;5.90;;;;;;;;;;5041194;28;20217;-71
2022/08/10 03:00:50;;;;;;;11.30;5.83;;;;;;;;;;5043459;28;20199;-71
2022/08/10 03:03:19;;;;;;;9.63;5.67;;;;;;;;;;5041376;28;20203;-71
2022/08/10 03:05:47;;;;;;;14.47;6.60;;;;;;;;;;5042696;28;20218;-71
2022/08/10 03:08:16;;;;;;;9.53;6.10;;;;;;;;;;5039845;28;20704;-71
2022/08/10 03:10:44;;;;;;;11.93;6.50;;;;;;;;;;5038931;28;20299;-71
2022/08/10 03:13:13;;;;;;;11.00;5.90;;;;;;;;;;5041291;28;20215;-71
2022/08/10 03:15:41;;;;;;;11.20;6.17;;;;;;;;;;5040920;28;20290;-71
2022/08/10 03:18:08;;;;;;;7.97;5.60;;;;;;;;;;5038976;28;20219;-71
2022/08/10 03:20:37;;;;;;;11.33;5.97;;;;;;;;;;5039196;28;20223;-71
2022/08/10 03:23:06;;;;;;;11.70;5.67;;;;;;;;;;5041152;28;20567;-71
2022/08/10 03:25:33;;;;;;;9.07;5.40;;;;;;;;;;5037126;28;20290;-71
2022/08/10 03:28:01;;;;;;;12.67;6.07;;;;;;;;;;5039267;28;20223;-71
2022/08/10 03:30:30;;;;;;;10.27;6.17;;;;;;;;;;5042375;28;20661;-71
2022/08/10 03:32:58;;;;;;;12.13;5.83;;;;;;;;;;5037358;28;20295;-71
2022/08/10 03:35:25;;;;;;;8.87;5.80;;;;;;;;;;5041797;28;20580;-71
2022/08/10 03:37:53;;;;;;;11.13;5.67;;;;;;;;;;5037922;28;20577;-71
2022/08/10 03:40:20;;;;;;;10.13;5.67;;;;;;;;;;5041737;28;20577;-71
2022/08/10 03:42:48;;;;;;;9.30;5.83;;;;;;;;;;5041186;28;20585;-71
2022/08/10 03:45:16;;;;;;;18.50;5.73;;;;;;;;;;5041602;28;20201;-71
2022/08/10 03:47:45;;;;;;;11.53;6.27;;;;;;;;;;5039505;28;20245;-71
2022/08/10 03:50:13;;;;;;;12.80;6.23;;;;;;;;;;5040276;28;20674;-71
2022/08/10 03:52:41;;;;;;;12.33;6.20;;;;;;;;;;5039650;28;20502;-71
2022/08/10 03:55:08;;;;;;;13.20;6.00;;;;;;;;;;5037120;28;20218;-71
2022/08/10 03:57:35;;;;;;;10.03;5.50;;;;;;;;;;5043120;28;20833;-71
2022/08/10 04:00:03;;;;;;;11.60;5.87;;;;;;;;;;5041044;28;20215;-71
2022/08/10 04:02:31;;;;;;;10.13;5.73;;;;;;;;;;5038237;28;20205;-71
2022/08/10 04:04:59;;;;;;;7.67;5.40;;;;;;;;;;5043260;28;20194;-71
2022/08/10 04:07:29;;;;;;;10.87;5.50;;;;;;;;;;5037169;28;20227;-71
2022/08/10 04:09:57;;;;;;;9.40;6.40;;;;;;;;;;5038372;28;20207;-71
2022/08/10 04:12:24;;;;;;;9.97;6.53;;;;;;;;;;5037171;28;20199;-71
2022/08/10 04:14:51;;;;;;;8.57;5.70;;;;;;;;;;5042193;28;20582;-70
2022/08/10 04:17:18;;;;;;;9.77;6.07;;;;;;;;;;5040528;28;20672;-71
2022/08/10 04:19:48;;;;;;;10.73;6.33;;;;;;;;;;5042538;28;20200;-71
2022/08/10 04:22:18;;;;;;;10.60;5.67;;;;;;;;;;5042375;28;20204;-71
2022/08/10 04:24:46;;;;;;;13.20;6.27;;;;;;;;;;5039702;28;20688;-71
2022/08/10 04:27:14;;;;;;;10.67;5.67;;;;;;;;;;5039742;28;20220;-71
2022/08/10 04:29:42;;;;;;;14.03;5.90;;;;;;;;;;5034849;28;20207;-71
2022/08/10 04:32:10;;;;;;;8.77;5.37;;;;;;;;;;5038409;28;20195;-71
2022/08/10 04:34:38;;;;;;;9.30;5.77;;;;;;;;;;5036665;28;20248;-71
2022/08/10 04:37:07;;;;;;;10.00;5.57;;;;;;;;;;5040147;28;20592;-71
2022/08/10 04:39:35;;;;;;;12.53;5.87;;;;;;;;;;5037695;28;20207;-71
2022/08/10 04:42:02;;;;;;;10.67;5.53;;;;;;;;;;5036628;28;20227;-71
2022/08/10 04:44:30;;;;;;;6.90;4.90;;;;;;;;;;5033150;28;20239;-71
2022/08/10 04:46:57;;;;;;;8.40;4.13;;;;;;;;;;5037397;28;20261;-71
2022/08/10 04:49:24;;;;;;;8.83;4.77;;;;;;;;;;5039168;28;20199;-71
2022/08/10 04:51:51;;;;;;;10.17;4.87;;;;;;;;;;5034682;28;20199;-70
2022/08/10 04:54:18;;;;;;;12.67;4.53;;;;;;;;;;5037450;28;20200;-71
2022/08/10 04:56:47;;;;;;;13.57;4.43;;;;;;;;;;5034415;28;20223;-70
2022/08/10 04:59:14;;;;;;;8.97;4.33;;;;;;;;;;5037883;28;20229;-71
2022/08/10 05:01:41;;;;;;;10.67;4.20;;;;;;;;;;5034633;28;20684;-71
2022/08/10 05:04:09;;;;;;;8.37;4.60;;;;;;;;;;5041962;28;20200;-70
2022/08/10 05:06:36;;;;;;;9.23;4.30;;;;;;;;;;5042829;28;20237;-71
2022/08/10 05:09:03;;;;;;;10.03;3.90;;;;;;;;;;5042471;28;20227;-71
2022/08/10 05:11:30;;;;;;;7.47;4.27;;;;;;;;;;5039759;28;20221;-71
2022/08/10 05:13:59;;;;;;;9.57;4.37;;;;;;;;;;5036644;28;20207;-71
2022/08/10 05:16:26;;;;;;;5.83;3.93;;;;;;;;;;5039239;28;21101;-70
2022/08/10 05:18:53;;;;;;;13.30;3.97;;;;;;;;;;5040822;28;20265;-72
2022/08/10 05:21:20;;;;;;;11.37;4.17;;;;;;;;;;5038387;28;20724;-70
2022/08/10 05:23:47;;;;;;;7.97;3.70;;;;;;;;;;5037814;28;20294;-70
2022/08/10 05:26:15;;;;;;;8.27;3.53;;;;;;;;;;5037305;28;20203;-71
2022/08/10 05:28:42;;;;;;;6.37;3.57;;;;;;;;;;5038309;28;20215;-71
2022/08/10 05:31:10;;;;;;;7.40;3.53;;;;;;;;;;5036793;28;20207;-70
2022/08/10 05:33:38;;;;;;;8.27;3.73;;;;;;;;;;5040618;28;20203;-70
2022/08/10 05:36:05;;;;;;;19.10;5.67;;;;;;;;;;5043034;28;20684;-70
2022/08/10 05:38:33;;;;;;;15.03;4.23;;;;;;;;;;5038344;28;20199;-69
2022/08/10 05:41:00;;;;;;;10.20;4.30;;;;;;;;;;5038393;28;20294;-71
2022/08/10 05:43:28;;;;;;;17.13;4.63;;;;;;;;;;5037534;28;20302;-71
2022/08/10 05:45:55;;;;;;;13.67;3.97;;;;;;;;;;5038223;28;20208;-70
2022/08/10 05:48:23;;;;;;;13.47;4.10;;;;;;;;;;5040346;28;20227;-71
2022/08/10 05:50:51;;;;;;;11.70;3.60;;;;;;;;;;5039698;28;20445;-71
2022/08/10 05:53:18;;;;;;;6.00;3.60;;;;;;;;;;5046041;28;20782;-71
2022/08/10 05:55:45;;;;;;;16.93;3.93;;;;;;;;;;5043506;28;20294;-71
2022/08/10 05:58:12;;;;;;;16.27;4.17;;;;;;;;;;5043818;28;20228;-71
2022/08/10 06:00:41;;;;;;;8.77;3.97;;;;;;;;;;5041697;28;20199;-71
2022/08/10 06:03:08;;;;;;;15.27;3.80;;;;;;;;;;5044286;28;20740;-71
2022/08/10 06:05:39;;;;;;;9.93;3.60;;;;;;;;;;5038349;28;20700;-71
2022/08/10 06:08:14;;;;;;;11.40;3.90;;;;;;;;;;5046720;28;20223;-71
2022/08/10 06:10:43;;;;;;;6.97;3.27;;;;;;;;;;5043353;28;20741;-71
2022/08/10 06:15:57;;;;;;;6.40;3.50;;;;;;;;;;5042779;28;20693;-70
2022/08/10 06:18:24;;;;;;;6.97;3.50;;;;;;;;;;5043933;28;20279;-71
2022/08/10 06:20:53;;;;;;;8.23;3.43;;;;;;;;;;5044848;28;20214;-71
2022/08/10 06:23:20;;;;;;;6.90;3.50;;;;;;;;;;5038928;28;20250;-71
2022/08/10 06:25:47;;;;;;;7.40;3.37;;;;;;;;;;5042827;28;20710;-71
2022/08/10 06:28:16;;;;;;;7.70;3.40;;;;;;;;;;5041389;28;20223;-71
2022/08/10 06:30:43;;;;;;;13.13;3.70;;;;;;;;;;5046312;28;20618;-71
2022/08/10 06:33:12;;;;;;;8.07;3.70;;;;;;;;;;5041851;28;20213;-71
2022/08/10 06:35:40;;;;;;;13.67;3.60;;;;;;;;;;5042818;28;20206;-71
2022/08/10 06:38:09;;;;;;;8.23;3.30;;;;;;;;;;5042466;28;20229;-71
2022/08/10 06:40:38;;;;;;;8.53;3.37;;;;;;;;;;5046227;28;20210;-71
2022/08/10 06:43:06;;;;;;;9.70;3.53;;;;;;;;;;5042240;28;20203;-71
2022/08/10 06:45:35;;;;;;;11.20;3.80;;;;;;;;;;5042230;28;20287;-71
2022/08/10 06:48:04;;;;;;;10.03;3.53;;;;;;;;;;5037876;28;20240;-71
2022/08/10 06:50:35;;;;;;;9.10;3.53;;;;;;;;;;5046400;28;20207;-71
2022/08/10 06:53:03;;;;;;;5.90;3.10;;;;;;;;;;5035934;28;21590;-70
2022/08/10 06:55:33;;;;;;;7.63;3.27;;;;;;;;;;5040822;28;20195;-71
2022/08/10 06:58:01;;;;;;;5.13;2.90;;;;;;;;;;5039688;28;20318;-71
2022/08/10 07:00:31;;;;;;;8.30;3.40;;;;;;;;;;5036473;28;20211;-72
2022/08/10 07:02:59;;;;;;;7.00;3.27;;;;;;;;;;5029235;28;20218;-71
2022/08/10 07:05:27;;;;;;;12.20;3.20;;;;;;;;;;5040028;28;20314;-71
2022/08/10 07:07:56;;;;;;;8.97;3.07;;;;;;;;;;5040847;28;20219;-71
2022/08/10 07:10:24;;;;;;;6.97;2.83;;;;;;;;;;5040946;28;20298;-70
2022/08/10 07:12:55;;;;;;;4.30;2.57;;;;;;;;;;5035609;28;20294;-71
2022/08/10 07:15:23;;;;;;;16.13;3.07;;;;;;;;;;5043254;28;20737;-71
2022/08/10 07:17:51;;;;;;;3.70;2.50;;;;;;;;;;5039407;28;20332;-71
2022/08/10 07:20:20;;;;;;;6.17;2.60;;;;;;;;;;5042160;28;20212;-72
2022/08/10 07:22:48;;;;;;;9.17;2.70;;;;;;;;;;5042393;28;20216;-71
2022/08/10 07:25:16;;;;;;;6.23;2.60;;;;;;;;;;5045646;28;20314;-71
2022/08/10 07:27:44;;;;;;;6.77;2.50;;;;;;;;;;5039348;28;20230;-72
2022/08/10 07:30:12;;;;;;;4.53;2.50;;;;;;;;;;5041710;28;20204;-71
2022/08/10 07:32:42;;;;;;;4.70;2.60;;;;;;;;;;5040308;28;20211;-72
2022/08/10 07:35:11;;;;;;;6.30;2.73;;;;;;;;;;5044451;28;20726;-72
2022/08/10 07:37:39;;;;;;;4.87;2.30;;;;;;;;;;5040509;28;20226;-72
2022/08/10 07:40:08;;;;;;;5.53;2.67;;;;;;;;;;5042401;28;20697;-72
2022/08/10 07:42:37;;;;;;;2.97;2.20;;;;;;;;;;5042133;28;20206;-72
2022/08/10 07:45:05;;;;;;;5.03;2.50;;;;;;;;;;5039154;28;20210;-72
2022/08/10 07:47:35;;;;;;;4.50;2.30;;;;;;;;;;5041961;28;20226;-72
2022/08/10 07:50:03;;;;;;;4.60;2.75;;;;;;;;;;5042370;28;20217;-72
2022/08/10 07:52:33;;;;;;;4.97;2.30;;;;;;;;;;5038712;28;20202;-72
2022/08/10 07:55:02;;;;;;;5.68;2.35;;;;;;;;;;5036345;28;20572;-71
2022/08/10 07:57:31;;;;;;;4.47;2.35;;;;;;;;;;5041538;28;20258;-72
2022/08/10 08:00:00;;;;;;;6.30;2.22;;;;;;;;;;5042032;28;20205;-72
2022/08/10 08:02:29;;;;;;;8.20;2.35;;;;;;;;;;5042206;28;20202;-72
2022/08/10 08:04:59;;;;;;;3.58;1.95;;;;;;;;;;5038579;28;20283;-71
2022/08/10 08:07:27;;;;;;;8.02;2.30;;;;;;;;;;5038495;28;20220;-72
2022/08/10 08:09:55;;;;;;;9.35;2.67;;;;;;;;;;5040037;28;20659;-72
2022/08/10 08:12:23;;;;;;;4.88;2.38;;;;;;;;;;5042179;28;20204;-72
2022/08/10 08:14:51;;;;;;;4.40;2.10;;;;;;;;;;5037736;28;20217;-72
2022/08/10 08:17:20;;;;;;;5.90;2.30;;;;;;;;;;5033721;28;20231;-72
2022/08/10 08:19:49;;;;;;;4.90;2.25;;;;;;;;;;5036672;28;20219;-71
2022/08/10 08:22:18;;;;;;;8.10;2.50;;;;;;;;;;5036297;28;20203;-72
2022/08/10 08:24:46;;;;;;;10.48;2.20;;;;;;;;;;5036234;28;20401;-72
2022/08/10 08:27:15;;;;;;;5.95;2.10;;;;;;;;;;5033447;28;20613;-72
2022/08/10 08:29:43;;;;;;;9.45;2.22;;;;;;;;;;5035341;28;20595;-71
2022/08/10 08:32:11;;;;;;;5.43;2.00;;;;;;;;;;5034755;28;20307;-72
2022/08/10 08:34:40;;;;;;;5.03;2.15;;;;;;;;;;5043177;28;20230;-72
2022/08/10 08:37:09;;;;;;;4.07;2.08;;;;;;;;;;5043685;28;20234;-72
2022/08/10 08:39:37;;;;;;;6.60;2.35;;;;;;;;;;5046449;28;20370;-72
2022/08/10 08:42:14;;;;;;;8.73;1.98;;;;;;;;;;5040311;28;20248;-72
2022/08/10 08:44:47;;;;;;;3.63;2.10;;;;;;;;;;5041114;28;20212;-72
2022/08/10 08:47:24;;;;;;;8.65;2.15;;;;;;;;;;5036554;28;20223;-72
2022/08/10 08:49:58;;;;;;;4.13;1.98;;;;;;;;;;5046148;28;20309;-71
2022/08/10 08:52:34;;;;;;;4.35;2.15;;;;;;;;;;5042112;28;21355;-71
2022/08/10 08:55:10;;;;;;;7.13;2.00;;;;;;;;;;5045803;28;20211;-71
2022/08/10 08:57:43;;;;;;;8.63;2.37;;;;;;;;;;5039943;28;20230;-71
2022/08/10 09:00:13;;;;;;;3.13;1.87;;;;;;;;;;5042520;28;20199;-71
2022/08/10 09:02:48;;;;;;;4.83;1.87;;;;;;;;;;5035527;28;20205;-70
2022/08/10 09:05:23;;;;;;;4.53;1.90;;;;;;;;;;5035602;28;20203;-70
2022/08/10 09:07:57;;;;;;;3.33;1.70;;;;;;;;;;5042381;28;20672;-71
2022/08/10 09:10:31;;;;;;;3.13;2.13;;;;;;;;;;5045072;28;20203;-71
2022/08/10 09:13:01;;;;;;;3.33;2.07;;;;;;;;;;5044649;28;20210;-71
2022/08/10 09:15:33;;;;;;;3.93;2.13;;;;;;;;;;5044923;28;20199;-71
2022/08/10 09:18:07;;;;;;;3.80;2.10;;;;;;;;;;5043596;28;20238;-71
2022/08/10 09:20:37;;;;;;;5.30;1.93;;;;;;;;;;5045526;28;20203;-71
2022/08/10 09:23:10;;;;;;;3.07;2.30;;;;;;;;;;5044277;28;20591;-69
2022/08/10 09:25:43;;;;;;;3.77;2.40;;;;;;;;;;5042473;28;20206;-71
2022/08/10 09:28:14;;;;;;;4.23;2.40;;;;;;;;;;5041253;28;20223;-71
2022/08/10 09:30:44;;;;;;;6.20;2.30;;;;;;;;;;5045905;28;20207;-70
2022/08/10 09:33:14;;;;;;;4.30;2.00;;;;;;;;;;5041241;28;20203;-71
2022/08/10 09:35:48;;;;;;;4.97;2.30;;;;;;;;;;5042751;28;20205;-71
2022/08/10 09:38:18;;;;;;;6.03;2.30;;;;;;;;;;5043649;28;20317;-71
2022/08/10 09:40:49;;;;;;;3.97;2.00;;;;;;;;;;5037941;28;20204;-71
2022/08/10 09:43:21;;;;;;;5.70;2.60;;;;;;;;;;5043550;28;20233;-71
2022/08/10 09:45:52;;;;;;;6.73;2.30;;;;;;;;;;5042876;28;20658;-71
2022/08/10 09:48:25;;;;;;;2.43;2.00;;;;;;;;;;5039668;28;20223;-71
2022/08/10 09:50:56;;;;;;;4.53;2.30;;;;;;;;;;5042150;28;20268;-70
2022/08/10 09:53:27;;;;;;;6.37;2.27;;;;;;;;;;5041223;28;20221;-71
2022/08/10 09:55:59;;;;;;;3.40;2.57;;;;;;;;;;5041582;28;20619;-70
2022/08/10 09:58:36;;;;;;;3.47;2.23;;;;;;;;;;5040189;28;20223;-70
2022/08/10 10:01:11;;;;;;;5.47;2.40;;;;;;;;;;5045521;28;20242;-71
2022/08/10 10:03:47;;;;;;;4.33;2.20;;;;;;;;;;5043063;28;20248;-70
2022/08/10 10:06:18;;;;;;;6.77;2.20;;;;;;;;;;5045671;28;20217;-71
2022/08/10 10:08:52;;;;;;;3.60;2.47;;;;;;;;;;5043744;28;20234;-71
2022/08/10 10:11:25;;;;;;;3.27;1.67;;;;;;;;;;5044162;28;20199;-71
2022/08/10 10:13:58;;;;;;;5.50;2.00;;;;;;;;;;5045551;28;20289;-70
2022/08/10 10:16:42;;;;;;;3.13;2.13;;;;;;;;;;5039061;28;20225;-71
2022/08/10 10:19:16;;;;;;;7.37;2.20;;;;;;;;;;5041590;28;20227;-70
2022/08/10 10:21:45;;;;;;;8.37;2.40;;;;;;;;;;5038284;28;20584;-71
2022/08/10 10:24:18;;;;;;;7.60;2.33;;;;;;;;;;5045074;28;20208;-71
2022/08/10 10:26:50;;;;;;;2.97;1.93;;;;;;;;;;5039937;28;20227;-71
2022/08/10 10:29:25;;;;;;;3.33;2.20;;;;;;;;;;5040591;28;20698;-70
2022/08/10 10:31:55;;;;;;;6.40;2.20;;;;;;;;;;5043062;28;20205;-71
2022/08/10 10:34:26;;;;;;;5.47;2.50;;;;;;;;;;5039700;28;20203;-71
2022/08/10 10:36:54;;;;;;;7.93;2.40;;;;;;;;;;5037670;28;20273;-71
2022/08/10 10:39:23;;;;;;;4.17;2.27;;;;;;;;;;5038416;28;20292;-71
2022/08/10 10:41:54;;;;;;;10.03;2.40;;;;;;;;;;5039325;28;20286;-71
2022/08/10 10:44:32;;;;;;;2.37;2.10;;;;;;;;;;5044278;28;20301;-71
2022/08/10 10:47:03;;;;;;;3.47;2.57;;;;;;;;;;5037321;28;20309;-71
2022/08/10 10:49:41;;;;;;;3.57;2.17;;;;;;;;;;5041631;28;20225;-71
2022/08/10 10:52:16;;;;;;;5.73;2.60;;;;;;;;;;5040469;28;20717;-71
2022/08/10 10:54:47;;;;;;;4.23;2.50;;;;;;;;;;5039497;28;20291;-71
2022/08/10 10:57:19;;;;;;;4.13;2.27;;;;;;;;;;5041184;28;20747;-71
2022/08/10 10:59:54;;;;;;;4.80;2.00;;;;;;;;;;5039247;28;20200;-71
2022/08/10 11:02:28;;;;;;;2.27;2.00;;;;;;;;;;5038017;28;20333;-70
2022/08/10 11:04:57;;;;;;;6.90;2.27;;;;;;;;;;5033820;28;20286;-69
2022/08/10 11:07:28;;;;;;;2.73;2.20;;;;;;;;;;5041445;28;20242;-70
2022/08/10 11:09:57;;;;;;;6.60;2.33;;;;;;;;;;5039169;28;20375;-69
2022/08/10 11:12:30;;;;;;;5.47;2.57;;;;;;;;;;5034554;28;20209;-70
2022/08/10 11:15:03;;;;;;;7.23;2.80;;;;;;;;;;5041611;28;20334;-70
2022/08/10 11:17:33;;;;;;;3.60;2.37;;;;;;;;;;5042704;28;20234;-70
2022/08/10 11:20:04;;;;;;;3.83;2.00;;;;;;;;;;5042423;28;20655;-70
2022/08/10 11:22:34;;;;;;;4.53;2.63;;;;;;;;;;5043332;28;20728;-70
2022/08/10 11:25:03;;;;;;;5.80;2.20;;;;;;;;;;5043576;28;20207;-71
2022/08/10 11:27:39;;;;;;;3.57;1.93;;;;;;;;;;5042921;28;20320;-70
2022/08/10 11:30:07;;;;;;;6.47;2.37;;;;;;;;;;5043547;28;20283;-72
2022/08/10 11:32:43;;;;;;;2.90;2.20;;;;;;;;;;5041470;28;20242;-71
2022/08/10 11:35:19;;;;;;;4.77;2.20;;;;;;;;;;5043178;28;20294;-71
2022/08/10 11:37:50;;;;;;;6.40;2.30;;;;;;;;;;5040669;28;20284;-70
2022/08/10 11:40:20;;;;;;;3.27;2.30;;;;;;;;;;5045062;28;20234;-70
2022/08/10 11:42:51;;;;;;;4.87;2.27;;;;;;;;;;5040822;28;20234;-71
2022/08/10 11:45:22;;;;;;;2.90;2.10;;;;;;;;;;5040648;28;20221;-70
2022/08/10 11:47:52;;;;;;;3.40;2.20;;;;;;;;;;5040746;28;20254;-70
2022/08/10 11:50:23;;;;;;;3.70;2.27;;;;;;;;;;5039843;28;20230;-71
2022/08/10 11:52:54;;;;;;;3.63;2.20;;;;;;;;;;5041351;28;20297;-71
2022/08/10 11:55:22;;;;;;;3.13;2.10;;;;;;;;;;5042759;28;20587;-70
2022/08/10 11:57:53;;;;;;;4.90;2.50;;;;;;;;;;5040082;28;20310;-70
2022/08/10 12:00:20;;;;;;;4.33;2.20;;;;;;;;;;5041451;28;20234;-71
2022/08/10 12:02:49;;;;;;;3.90;2.40;;;;;;;;;;5044130;28;20226;-70
2022/08/10 12:05:17;;;;;;;6.40;2.10;;;;;;;;;;5043502;28;20299;-70
2022/08/10 12:07:47;;;;;;;5.40;2.50;;;;;;;;;;5044414;28;20226;-71
2022/08/10 12:10:15;;;;;;;5.83;1.90;;;;;;;;;;5042764;28;20224;-71
2022/08/10 12:12:46;;;;;;;6.90;2.33;;;;;;;;;;5045543;28;20211;-71
2022/08/10 12:15:17;;;;;;;2.83;2.10;;;;;;;;;;5043680;28;20214;-70
2022/08/10 12:17:46;;;;;;;4.07;2.00;;;;;;;;;;5044071;28;20226;-71
2022/08/10 12:20:16;;;;;;;3.97;2.53;;;;;;;;;;5045348;28;20633;-70
2022/08/10 12:22:48;;;;;;;7.07;2.57;;;;;;;;;;5047329;28;20225;-70
2022/08/10 12:25:16;;;;;;;3.07;2.10;;;;;;;;;;5043924;28;20207;-70
2022/08/10 12:27:47;;;;;;;4.67;2.40;;;;;;;;;;5048451;28;20317;-69
2022/08/10 12:30:16;;;;;;;3.47;2.50;;;;;;;;;;5044406;28;20713;-71
2022/08/10 12:32:45;;;;;;;7.10;2.47;;;;;;;;;;5048360;28;20215;-71
2022/08/10 12:35:16;;;;;;;5.53;2.50;;;;;;;;;;5046383;28;20218;-71
2022/08/10 12:37:47;;;;;;;4.53;2.23;;;;;;;;;;5047050;28;20256;-70
2022/08/10 12:40:16;;;;;;;3.97;2.10;;;;;;;;;;5049222;28;20709;-70
2022/08/10 12:42:47;;;;;;;4.40;2.07;;;;;;;;;;5045816;28;20694;-71
2022/08/10 12:45:17;;;;;;;6.70;2.20;;;;;;;;;;5050401;28;20216;-70
2022/08/10 12:47:48;;;;;;;4.83;2.00;;;;;;;;;;5043379;28;20309;-70
2022/08/10 12:50:18;;;;;;;3.00;1.90;;;;;;;;;;5048264;28;20211;-70
2022/08/10 12:52:52;;;;;;;5.73;2.20;;;;;;;;;;5049957;28;20203;-71
2022/08/10 12:55:20;;;;;;;4.43;2.47;;;;;;;;;;5044535;28;20214;-70
2022/08/10 12:57:50;;;;;;;4.90;2.00;;;;;;;;;;5045507;28;20250;-70
2022/08/10 13:00:19;;;;;;;6.90;2.10;;;;;;;;;;5049264;28;20205;-71
2022/08/10 13:02:47;;;;;;;2.87;1.97;;;;;;;;;;5047104;28;20199;-71
2022/08/10 13:05:15;;;;;;;5.00;2.10;;;;;;;;;;5044957;28;20753;-70
2022/08/10 13:07:45;;;;;;;2.83;2.00;;;;;;;;;;5047645;28;20228;-71
2022/08/10 13:10:13;;;;;;;5.37;2.07;;;;;;;;;;5045317;28;20437;-71
2022/08/10 13:12:41;;;;;;;4.47;2.00;;;;;;;;;;5045911;28;20310;-71
2022/08/10 13:15:13;;;;;;;5.37;2.30;;;;;;;;;;5045574;28;20761;-72
2022/08/10 13:17:42;;;;;;;4.63;2.10;;;;;;;;;;5045739;28;20239;-71
2022/08/10 13:20:15;;;;;;;4.27;2.30;;;;;;;;;;5046304;28;20214;-70
2022/08/10 13:22:43;;;;;;;4.37;2.23;;;;;;;;;;5047661;28;20214;-71
2022/08/10 13:25:12;;;;;;;3.90;2.27;;;;;;;;;;5046764;28;20200;-70
2022/08/10 13:27:40;;;;;;;7.50;2.20;;;;;;;;;;5049902;28;20612;-71
2022/08/10 13:30:08;;;;;;;8.63;1.93;;;;;;;;;;5044299;28;20223;-70
2022/08/10 13:32:36;;;;;;;5.47;2.10;;;;;;;;;;5049394;28;20286;-71
2022/08/10 13:35:08;;;;;;;6.00;2.20;;;;;;;;;;5048519;28;20286;-70
2022/08/10 13:37:36;;;;;;;6.57;2.00;;;;;;;;;;5050112;28;20250;-71
2022/08/10 13:40:04;;;;;;;3.73;1.80;;;;;;;;;;5045763;28;20675;-70
2022/08/10 13:42:34;;;;;;;3.03;2.17;;;;;;;;;;5043994;28;20497;-71
2022/08/10 13:45:06;;;;;;;4.57;2.10;;;;;;;;;;5046413;28;20215;-71
2022/08/10 13:47:34;;;;;;;4.10;2.20;;;;;;;;;;5048373;28;20608;-71
2022/08/10 13:50:03;;;;;;;5.67;2.33;;;;;;;;;;5047915;28;20603;-71
2022/08/10 13:52:32;;;;;;;4.70;2.50;;;;;;;;;;5044579;28;20211;-71
2022/08/10 13:55:00;;;;;;;3.70;2.23;;;;;;;;;;5045622;28;20214;-71
2022/08/10 13:57:28;;;;;;;2.60;2.00;;;;;;;;;;5045625;28;20321;-70
2022/08/10 13:59:57;;;;;;;3.27;2.10;;;;;;;;;;5045696;28;20219;-71
2022/08/10 14:02:26;;;;;;;5.67;2.20;;;;;;;;;;5044504;28;20602;-71
2022/08/10 14:04:55;;;;;;;3.30;2.10;;;;;;;;;;5047635;28;20203;-71
2022/08/10 14:07:23;;;;;;;6.17;2.00;;;;;;;;;;5048926;28;20227;-71
2022/08/10 14:09:52;;;;;;;4.40;2.10;;;;;;;;;;5046057;28;20202;-71
2022/08/10 14:12:21;;;;;;;4.93;2.23;;;;;;;;;;5046629;28;20203;-71
2022/08/10 14:14:49;;;;;;;5.23;2.60;;;;;;;;;;5047235;28;20302;-71
2022/08/10 14:17:19;;;;;;;4.70;2.00;;;;;;;;;;5045436;28;20258;-71
2022/08/10 14:19:49;;;;;;;2.53;2.03;;;;;;;;;;5042216;28;20274;-70
2022/08/10 14:22:18;;;;;;;4.03;2.13;;;;;;;;;;5042013;28;20303;-70
2022/08/10 14:24:45;;;;;;;2.63;2.10;;;;;;;;;;5041540;28;20218;-71
2022/08/10 14:27:14;;;;;;;5.07;1.97;;;;;;;;;;5042325;28;20296;-71
2022/08/10 14:29:43;;;;;;;6.20;2.00;;;;;;;;;;5047137;28;20203;-70
2022/08/10 14:32:11;;;;;;;3.00;1.87;;;;;;;;;;5045950;28;20662;-70
2022/08/10 14:34:39;;;;;;;2.47;1.77;;;;;;;;;;5044647;28;20289;-71
2022/08/10 14:37:09;;;;;;;3.17;1.90;;;;;;;;;;5046903;28;20238;-71
2022/08/10 14:39:42;;;;;;;10.50;2.10;;;;;;;;;;5044919;28;20286;-70
2022/08/10 14:42:12;;;;;;;3.40;1.90;;;;;;;;;;5047748;28;20674;-71
2022/08/10 14:44:44;;;;;;;3.93;2.00;;;;;;;;;;5044297;28;20290;-71
2022/08/10 14:47:13;;;;;;;3.70;2.13;;;;;;;;;;5037542;28;20230;-71
2022/08/10 14:49:41;;;;;;;4.00;2.40;;;;;;;;;;5040945;28;20736;-70
2022/08/10 14:52:09;;;;;;;2.63;1.80;;;;;;;;;;5041266;28;20322;-71
2022/08/10 14:54:36;;;;;;;3.57;2.13;;;;;;;;;;5044315;28;20195;-70
2022/08/10 14:57:05;;;;;;;8.03;2.00;;;;;;;;;;5043901;28;20248;-71